createdAt,value
2019-06-08T00:00:12.995Z,18.43
2019-06-08T00:02:41.253Z,17.63
2019-06-08T00:05:10.008Z,13.07
2019-06-08T00:07:38.919Z,16.30
2019-06-08T00:10:08.369Z,12.33
2019-06-08T00:12:36.956Z,17.70
2019-06-08T00:15:07.188Z,15.77
2019-06-08T00:17:38.936Z,18.20
2019-06-08T00:20:08.669Z,12.77
2019-06-08T00:22:37.518Z,22.80
2019-06-08T00:25:06.784Z,19.80
2019-06-08T00:27:35.435Z,17.43
2019-06-08T00:30:06.199Z,17.37
2019-06-08T00:32:34.897Z,17.60
2019-06-08T00:35:04.251Z,19.73
2019-06-08T00:37:32.912Z,15.43
2019-06-08T00:40:01.594Z,15.50
2019-06-08T00:42:30.225Z,16.90
2019-06-08T00:44:58.897Z,17.33
2019-06-08T00:47:42.493Z,18.53
2019-06-08T00:49:57.987Z,17.50
2019-06-08T00:52:26.637Z,14.93
2019-06-08T00:54:55.298Z,17.80
2019-06-08T00:57:24.062Z,17.33
2019-06-08T00:59:52.811Z,17.07
2019-06-08T01:02:22.581Z,19.37
2019-06-08T01:04:51.328Z,14.50
2019-06-08T01:07:20.007Z,19.57
2019-06-08T01:09:48.649Z,19.17
2019-06-08T01:12:18.625Z,18.23
2019-06-08T01:14:47.538Z,19.47
2019-06-08T01:17:16.198Z,20.23
2019-06-08T01:19:44.852Z,18.70
2019-06-08T01:22:13.515Z,15.97
2019-06-08T01:24:42.472Z,17.57
2019-06-08T01:27:11.361Z,16.40
2019-06-08T01:29:39.936Z,18.23
2019-06-08T01:32:08.591Z,21.07
2019-06-08T01:34:37.272Z,16.53
2019-06-08T01:37:05.870Z,20.77
2019-06-08T01:39:34.532Z,23.07
2019-06-08T01:42:03.187Z,20.17
2019-06-08T01:44:32.089Z,21.57
2019-06-08T01:47:00.793Z,30.90
2019-06-08T01:49:30.592Z,23.67
2019-06-08T01:51:59.330Z,21.73
2019-06-08T01:54:29.710Z,23.37
2019-06-08T01:56:58.409Z,26.03
2019-06-08T01:59:27.438Z,20.67
2019-06-08T02:01:56.057Z,24.80
2019-06-08T02:04:25.931Z,23.67
2019-06-08T02:06:54.685Z,24.97
2019-06-08T02:09:24.524Z,19.73
2019-06-08T02:11:53.323Z,22.07
2019-06-08T02:14:22.019Z,24.63
2019-06-08T02:16:50.763Z,23.87
2019-06-08T02:19:19.432Z,19.67
2019-06-08T02:21:48.093Z,23.60
2019-06-08T02:24:16.795Z,24.70
2019-06-08T02:26:45.459Z,20.33
2019-06-08T02:29:14.139Z,21.30
2019-06-08T02:31:42.783Z,29.90
2019-06-08T02:34:11.433Z,27.23
2019-06-08T02:36:40.816Z,20.70
2019-06-08T02:39:09.662Z,29.93
2019-06-08T02:41:39.949Z,20.57
2019-06-08T02:44:08.746Z,18.90
2019-06-08T02:46:40.087Z,18.53
2019-06-08T02:49:08.521Z,25.43
2019-06-08T02:51:38.253Z,15.30
2019-06-08T02:54:07.186Z,16.27
2019-06-08T02:56:37.345Z,19.70
2019-06-08T02:59:07.125Z,15.40
2019-06-08T03:01:38.148Z,23.70
2019-06-08T03:04:06.593Z,30.97
2019-06-08T03:06:39.462Z,15.70
2019-06-08T03:09:08.691Z,19.27
2019-06-08T03:11:39.004Z,19.47
2019-06-08T03:14:08.147Z,15.37
2019-06-08T03:16:40.389Z,18.13
2019-06-08T03:19:20.916Z,17.73
2019-06-08T03:21:38.856Z,22.57
2019-06-08T03:24:07.859Z,19.53
2019-06-08T03:26:39.050Z,20.23
2019-06-08T03:29:06.891Z,27.93
2019-06-08T03:31:42.429Z,17.80
2019-06-08T03:34:05.893Z,20.70
2019-06-08T03:36:39.012Z,27.23
2019-06-08T03:39:07.256Z,28.27
2019-06-08T03:41:36.265Z,20.50
2019-06-08T03:44:06.312Z,22.63
2019-06-08T03:46:36.386Z,22.43
2019-06-08T03:49:05.166Z,17.67
2019-06-08T03:51:36.054Z,20.47
2019-06-08T03:54:04.156Z,29.40
2019-06-08T03:56:32.837Z,25.03
2019-06-08T03:59:01.583Z,24.10
2019-06-08T04:01:30.293Z,23.23
2019-06-08T04:04:00.126Z,22.93
2019-06-08T04:06:28.835Z,21.47
2019-06-08T04:08:57.505Z,21.87
2019-06-08T04:11:26.090Z,27.70
2019-06-08T04:13:54.785Z,27.83
2019-06-08T04:16:23.450Z,15.90
2019-06-08T04:18:52.104Z,23.03
2019-06-08T04:21:20.697Z,16.17
2019-06-08T04:23:50.674Z,18.10
2019-06-08T04:26:19.676Z,15.90
2019-06-08T04:28:49.628Z,16.33
2019-06-08T04:31:18.304Z,19.90
2019-06-08T04:33:47.062Z,15.70
2019-06-08T04:36:15.717Z,16.43
2019-06-08T04:38:45.716Z,19.70
2019-06-08T04:41:14.730Z,21.80
2019-06-08T04:43:44.960Z,21.33
2019-06-08T04:46:13.769Z,28.67
2019-06-08T04:48:43.134Z,22.17
2019-06-08T04:51:12.833Z,21.63
2019-06-08T04:53:43.086Z,19.43
2019-06-08T04:56:11.919Z,16.97
2019-06-08T04:58:42.185Z,19.03
2019-06-08T05:01:10.951Z,17.23
2019-06-08T05:03:41.222Z,26.87
2019-06-08T05:06:09.859Z,21.13
2019-06-08T05:08:39.033Z,16.13
2019-06-08T05:11:07.870Z,17.73
2019-06-08T05:13:36.586Z,20.40
2019-06-08T05:16:05.241Z,23.43
2019-06-08T05:18:33.823Z,21.17
2019-06-08T05:21:02.416Z,16.00
2019-06-08T05:23:31.074Z,19.67
2019-06-08T05:25:59.748Z,18.53
2019-06-08T05:28:28.420Z,23.27
2019-06-08T05:30:57.229Z,27.53
2019-06-08T05:33:25.896Z,21.67
2019-06-08T05:35:54.553Z,22.30
2019-06-08T05:38:23.227Z,28.87
2019-06-08T05:40:51.878Z,26.00
2019-06-08T05:43:20.490Z,28.97
2019-06-08T05:45:49.980Z,19.10
2019-06-08T05:48:19.247Z,30.07
2019-06-08T05:51:02.693Z,26.23
2019-06-08T05:53:18.232Z,20.80
2019-06-08T05:55:47.993Z,33.33
2019-06-08T05:58:16.741Z,21.27
2019-06-08T06:00:46.275Z,24.27
2019-06-08T06:03:15.037Z,17.87
2019-06-08T06:05:44.346Z,20.63
2019-06-08T06:08:18.884Z,18.40
2019-06-08T06:10:44.772Z,22.07
2019-06-08T06:13:13.635Z,27.60
2019-06-08T06:15:42.970Z,25.73
2019-06-08T06:18:11.662Z,24.75
2019-06-08T06:20:41.006Z,17.97
2019-06-08T06:23:09.849Z,20.13
2019-06-08T06:25:38.502Z,24.20
2019-06-08T06:28:07.217Z,23.63
2019-06-08T06:30:35.959Z,22.27
2019-06-08T06:33:04.620Z,26.83
2019-06-08T06:35:33.281Z,21.93
2019-06-08T06:38:01.928Z,18.67
2019-06-08T06:40:30.702Z,23.57
2019-06-08T06:42:59.352Z,19.93
2019-06-08T06:45:28.022Z,27.37
2019-06-08T06:47:56.733Z,18.80
2019-06-08T06:50:25.417Z,20.90
2019-06-08T06:52:54.071Z,21.77
2019-06-08T06:55:25.368Z,28.43
2019-06-08T06:57:53.615Z,19.70
2019-06-08T07:00:32.551Z,19.90
2019-06-08T07:03:02.274Z,20.17
2019-06-08T07:05:30.930Z,23.20
2019-06-08T07:07:59.579Z,15.43
2019-06-08T07:10:28.175Z,19.20
2019-06-08T07:12:56.830Z,18.87
2019-06-08T07:15:29.522Z,17.07
2019-06-08T07:17:58.714Z,18.37
2019-06-08T07:20:27.437Z,16.83
2019-06-08T07:22:56.084Z,23.87
2019-06-08T07:25:24.759Z,15.67
2019-06-08T07:27:54.958Z,23.30
2019-06-08T07:30:23.894Z,21.17
2019-06-08T07:32:53.037Z,17.47
2019-06-08T07:35:21.692Z,25.57
2019-06-08T07:37:51.876Z,25.40
2019-06-08T07:40:20.644Z,22.03
2019-06-08T07:42:50.807Z,26.63
2019-06-08T07:45:19.681Z,25.83
2019-06-08T07:47:48.375Z,22.33
2019-06-08T07:50:17.260Z,28.70
2019-06-08T07:52:45.935Z,27.83
2019-06-08T07:55:14.618Z,20.67
2019-06-08T07:57:43.278Z,30.90
2019-06-08T08:00:12.185Z,22.10
2019-06-08T08:02:40.849Z,19.13
2019-06-08T08:05:09.805Z,22.17
2019-06-08T08:07:38.474Z,15.43
2019-06-08T08:10:07.907Z,22.70
2019-06-08T08:12:36.569Z,20.37
2019-06-08T08:15:08.458Z,26.57
2019-06-08T08:17:37.247Z,22.03
2019-06-08T08:20:07.503Z,23.67
2019-06-08T08:22:38.172Z,25.73
2019-06-08T08:25:08.290Z,33.43
2019-06-08T08:27:37.621Z,30.67
2019-06-08T08:30:08.417Z,30.03
2019-06-08T08:32:37.996Z,29.63
2019-06-08T08:35:08.741Z,31.50
2019-06-08T08:37:38.111Z,28.23
2019-06-08T08:40:07.878Z,25.00
2019-06-08T08:42:38.709Z,27.30
2019-06-08T08:45:08.780Z,24.63
2019-06-08T08:47:38.819Z,29.30
2019-06-08T08:50:10.351Z,26.57
2019-06-08T08:52:40.944Z,26.87
2019-06-08T08:55:09.722Z,28.23
2019-06-08T08:57:41.509Z,21.93
2019-06-08T09:00:09.630Z,26.60
2019-06-08T09:02:38.309Z,19.33
2019-06-08T09:05:08.587Z,21.40
2019-06-08T09:07:38.564Z,27.50
2019-06-08T09:10:08.526Z,23.63
2019-06-08T09:12:38.013Z,28.90
2019-06-08T09:15:08.652Z,25.87
2019-06-08T09:17:38.834Z,28.23
2019-06-08T09:20:09.379Z,23.17
2019-06-08T09:22:52.951Z,19.33
2019-06-08T09:25:09.035Z,25.97
2019-06-08T09:27:38.231Z,18.90
2019-06-08T09:30:08.423Z,22.83
2019-06-08T09:32:38.188Z,19.20
2019-06-08T09:35:09.384Z,15.20
2019-06-08T09:37:37.731Z,16.37
2019-06-08T09:40:07.532Z,19.60
2019-06-08T09:42:36.786Z,26.10
2019-06-08T09:45:09.484Z,15.27
2019-06-08T09:47:38.280Z,17.03
2019-06-08T09:50:11.690Z,19.17
2019-06-08T09:52:41.369Z,14.33
2019-06-08T09:55:11.004Z,15.40
2019-06-08T09:57:39.754Z,12.53
2019-06-08T10:00:17.935Z,21.33
2019-06-08T10:02:39.328Z,12.47
2019-06-08T10:05:08.225Z,13.33
2019-06-08T10:07:38.846Z,16.67
2019-06-08T10:10:09.805Z,13.58
2019-06-08T10:12:41.067Z,11.43
2019-06-08T10:15:09.485Z,16.15
2019-06-08T10:17:38.183Z,13.83
2019-06-08T10:20:09.805Z,12.60
2019-06-08T10:22:37.729Z,24.82
2019-06-08T10:25:11.284Z,15.20
2019-06-08T10:27:40.313Z,16.25
2019-06-08T10:30:10.443Z,17.42
2019-06-08T10:32:39.454Z,14.47
2019-06-08T10:35:10.605Z,24.02
2019-06-08T10:37:39.432Z,22.52
2019-06-08T10:40:10.115Z,14.90
2019-06-08T10:42:40.208Z,17.83
2019-06-08T10:45:14.672Z,21.77
2019-06-08T10:47:40.990Z,19.83
2019-06-08T10:50:15.156Z,20.10
2019-06-08T10:52:41.052Z,17.67
2019-06-08T10:55:12.234Z,21.67
2019-06-08T10:57:41.154Z,22.53
2019-06-08T11:00:20.145Z,21.10
2019-06-08T11:02:42.241Z,20.87
2019-06-08T11:05:13.903Z,23.73
2019-06-08T11:07:41.482Z,16.90
2019-06-08T11:10:12.405Z,23.53
2019-06-08T11:12:40.996Z,27.13
2019-06-08T11:15:11.754Z,25.73
2019-06-08T11:17:40.377Z,24.20
2019-06-08T11:20:13.076Z,23.90
2019-06-08T11:23:00.770Z,20.03
2019-06-08T11:25:29.007Z,28.17
2019-06-08T11:27:58.682Z,28.17
2019-06-08T11:30:30.559Z,25.70
2019-06-08T11:32:59.759Z,18.57
2019-06-08T11:35:28.703Z,25.90
2019-06-08T11:37:58.489Z,21.47
2019-06-08T11:40:28.008Z,24.67
2019-06-08T11:42:58.622Z,28.07
2019-06-08T11:45:27.231Z,34.50
2019-06-08T11:47:58.193Z,26.43
2019-06-08T11:50:41.577Z,25.87
2019-06-08T11:53:12.650Z,20.13
2019-06-08T11:55:39.093Z,30.70
2019-06-08T11:58:11.861Z,25.50
2019-06-08T12:00:48.881Z,26.37
2019-06-08T12:03:17.642Z,22.87
2019-06-08T12:05:47.771Z,19.47
2019-06-08T12:08:17.696Z,18.77
2019-06-08T12:10:49.090Z,26.63
2019-06-08T12:13:17.979Z,25.97
2019-06-08T12:15:48.797Z,27.13
2019-06-08T12:18:18.131Z,26.07
2019-06-08T12:20:48.821Z,22.93
2019-06-08T12:23:17.609Z,21.30
2019-06-08T12:25:46.276Z,19.83
2019-06-08T12:28:14.940Z,28.47
2019-06-08T12:30:43.720Z,21.77
2019-06-08T12:33:13.832Z,21.87
2019-06-08T12:35:42.529Z,18.90
2019-06-08T12:38:12.686Z,23.90
2019-06-08T12:40:41.780Z,30.33
2019-06-08T12:43:12.858Z,33.37
2019-06-08T12:45:41.013Z,28.10
2019-06-08T12:48:15.304Z,27.60
2019-06-08T12:50:40.055Z,25.13
2019-06-08T12:53:13.444Z,27.07
2019-06-08T12:55:39.147Z,25.97
2019-06-08T12:58:09.646Z,23.87
2019-06-08T13:00:38.216Z,23.27
2019-06-08T13:03:08.599Z,23.03
2019-06-08T13:05:37.977Z,25.03
2019-06-08T13:08:09.746Z,22.00
2019-06-08T13:10:38.150Z,25.13
2019-06-08T13:13:08.460Z,26.80
2019-06-08T13:15:38.439Z,26.33
2019-06-08T13:18:08.939Z,23.00
2019-06-08T13:20:38.872Z,31.20
2019-06-08T13:23:08.700Z,27.63
2019-06-08T13:25:43.472Z,26.17
2019-06-08T13:28:13.056Z,19.30
2019-06-08T13:30:39.119Z,36.00
2019-06-08T13:33:08.246Z,26.77
2019-06-08T13:35:39.566Z,36.80
2019-06-08T13:38:08.776Z,17.43
2019-06-08T13:40:40.181Z,29.97
2019-06-08T13:43:08.311Z,22.53
2019-06-08T13:45:39.379Z,29.97
2019-06-08T13:48:08.942Z,29.83
2019-06-08T13:50:37.910Z,21.83
2019-06-08T13:53:10.639Z,26.83
2019-06-08T13:55:49.535Z,18.83
2019-06-08T13:58:07.344Z,33.00
2019-06-08T14:00:38.561Z,33.10
2019-06-08T14:03:08.653Z,31.73
2019-06-08T14:05:38.813Z,24.03
2019-06-08T14:08:10.655Z,26.07
2019-06-08T14:10:39.966Z,26.13
2019-06-08T14:13:08.841Z,30.30
2019-06-08T14:15:38.025Z,18.27
2019-06-08T14:18:08.734Z,28.73
2019-06-08T14:20:38.538Z,33.67
2019-06-08T14:23:09.150Z,25.13
2019-06-08T14:25:47.889Z,31.10
2019-06-08T14:28:08.388Z,27.20
2019-06-08T14:30:37.684Z,27.47
2019-06-08T14:33:08.260Z,29.63
2019-06-08T14:35:36.989Z,24.27
2019-06-08T14:38:05.656Z,19.13
2019-06-08T14:40:34.440Z,30.63
2019-06-08T14:43:03.090Z,25.87
2019-06-08T14:45:31.755Z,34.03
2019-06-08T14:48:00.420Z,42.27
2019-06-08T14:50:31.012Z,30.73
2019-06-08T14:52:59.470Z,27.47
2019-06-08T14:55:32.102Z,32.53
2019-06-08T14:57:58.549Z,24.00
2019-06-08T15:00:27.780Z,33.23
2019-06-08T15:02:58.969Z,27.57
2019-06-08T15:05:30.718Z,25.43
2019-06-08T15:08:00.448Z,27.03
2019-06-08T15:10:29.741Z,23.13
2019-06-08T15:12:58.888Z,29.57
2019-06-08T15:15:30.426Z,25.50
2019-06-08T15:17:58.436Z,24.60
2019-06-08T15:20:28.619Z,32.07
2019-06-08T15:22:57.871Z,29.70
2019-06-08T15:25:29.502Z,27.90
2019-06-08T15:27:59.755Z,35.13
2019-06-08T15:30:30.628Z,41.37
2019-06-08T15:32:58.664Z,44.03
2019-06-08T15:35:27.578Z,29.63
2019-06-08T15:37:58.462Z,38.13
2019-06-08T15:40:27.725Z,25.97
2019-06-08T15:42:58.582Z,36.03
2019-06-08T15:45:29.423Z,32.43
2019-06-08T15:47:58.714Z,37.10
2019-06-08T15:50:28.460Z,37.07
2019-06-08T15:52:59.832Z,35.67
2019-06-08T15:55:31.400Z,30.77
2019-06-08T15:57:58.668Z,31.67
2019-06-08T16:00:29.585Z,38.40
2019-06-08T16:02:58.184Z,24.33
2019-06-08T16:05:27.755Z,37.97
2019-06-08T16:07:56.735Z,30.13
2019-06-08T16:10:26.326Z,28.03
2019-06-08T16:12:55.083Z,39.07
2019-06-08T16:15:24.881Z,23.70
2019-06-08T16:17:53.662Z,24.17
2019-06-08T16:20:22.368Z,27.53
2019-06-08T16:22:50.990Z,38.30
2019-06-08T16:25:19.685Z,31.13
2019-06-08T16:27:48.338Z,33.43
2019-06-08T16:30:17.141Z,45.50
2019-06-08T16:32:45.817Z,23.33
2019-06-08T16:35:14.545Z,29.83
2019-06-08T16:37:43.151Z,26.63
2019-06-08T16:40:12.205Z,30.17
2019-06-08T16:42:40.869Z,31.43
2019-06-08T16:45:10.212Z,22.93
2019-06-08T16:47:40.360Z,20.20
2019-06-08T16:50:23.432Z,32.67
2019-06-08T16:52:39.769Z,36.30
2019-06-08T16:55:08.736Z,21.50
2019-06-08T16:57:39.330Z,34.50
2019-06-08T17:02:39.372Z,34.80
2019-06-08T17:05:08.772Z,25.20
2019-06-08T17:07:37.809Z,37.07
2019-06-08T17:10:07.238Z,34.47
2019-06-08T17:12:37.004Z,31.80
2019-06-08T17:15:07.633Z,32.57
2019-06-08T17:17:36.620Z,21.70
2019-06-08T17:20:06.780Z,24.67
2019-06-08T17:22:36.824Z,29.87
2019-06-08T17:25:08.436Z,27.20
2019-06-08T17:27:37.290Z,27.53
2019-06-08T17:30:08.693Z,32.93
2019-06-08T17:32:38.483Z,21.50
2019-06-08T17:35:07.977Z,23.90
2019-06-08T17:37:38.025Z,37.43
2019-06-08T17:40:07.218Z,32.70
2019-06-08T17:42:35.873Z,35.40
2019-06-08T17:45:07.728Z,28.93
2019-06-08T17:49:08.927Z,27.97
2019-06-08T17:51:39.414Z,29.20
2019-06-08T17:54:09.923Z,30.20
2019-06-08T17:56:41.226Z,29.00
2019-06-08T17:59:11.932Z,32.10
2019-06-08T18:01:43.566Z,28.90
2019-06-08T18:04:14.018Z,39.00
2019-06-08T18:06:44.658Z,32.93
2019-06-08T18:09:17.349Z,34.37
2019-06-08T18:11:48.037Z,29.23
2019-06-08T18:14:18.787Z,34.47
2019-06-08T18:16:49.183Z,24.87
2019-06-08T18:19:28.528Z,21.10
2019-06-08T18:22:04.280Z,34.03
2019-06-08T18:24:31.254Z,35.87
2019-06-08T18:27:01.625Z,27.53
2019-06-08T18:29:32.197Z,38.37
2019-06-08T18:32:02.567Z,58.63
2019-06-08T18:34:32.926Z,33.33
2019-06-08T18:37:03.281Z,30.13
2019-06-08T18:39:35.013Z,37.23
2019-06-08T18:42:08.067Z,38.53
2019-06-08T18:44:41.011Z,22.87
2019-06-08T18:47:11.215Z,29.67
2019-06-08T18:49:43.081Z,28.30
2019-06-08T18:52:13.816Z,34.10
2019-06-08T18:54:44.293Z,29.77
2019-06-08T18:57:14.606Z,24.17
2019-06-08T18:59:48.656Z,40.30
2019-06-08T19:02:18.012Z,49.63
2019-06-08T19:04:50.393Z,41.90
2019-06-08T19:07:20.794Z,54.20
2019-06-08T19:09:51.812Z,53.80
2019-06-08T19:12:22.297Z,39.80
2019-06-08T19:14:52.733Z,41.90
2019-06-08T19:17:23.103Z,28.30
2019-06-08T19:19:53.470Z,31.87
2019-06-08T19:22:23.846Z,29.27
2019-06-08T19:24:54.309Z,36.23
2019-06-08T19:27:24.705Z,33.67
2019-06-08T19:29:55.013Z,33.50
2019-06-08T19:32:27.890Z,28.07
2019-06-08T19:34:58.067Z,31.63
2019-06-08T19:37:32.058Z,34.53
2019-06-08T19:40:00.733Z,40.13
2019-06-08T19:42:39.966Z,30.33
2019-06-08T19:45:05.600Z,35.80
2019-06-08T19:47:35.690Z,35.43
2019-06-08T19:50:07.900Z,33.87
2019-06-08T19:52:42.094Z,40.33
2019-06-08T19:55:10.643Z,35.13
2019-06-08T19:57:41.361Z,56.30
2019-06-08T20:00:13.558Z,33.60
2019-06-08T20:02:44.640Z,40.83
2019-06-08T20:05:17.451Z,29.77
2019-06-08T20:07:49.122Z,46.50
2019-06-08T20:10:19.618Z,28.80
2019-06-08T20:12:50.944Z,34.83
2019-06-08T20:15:21.401Z,45.60
2019-06-08T20:17:52.033Z,37.30
2019-06-08T20:20:22.424Z,36.27
2019-06-08T20:22:53.621Z,33.77
2019-06-08T20:25:24.224Z,34.80
2019-06-08T20:27:54.583Z,37.30
2019-06-08T20:30:24.962Z,44.07
2019-06-08T20:32:57.434Z,36.73
2019-06-08T20:35:28.005Z,38.73
2019-06-08T20:37:58.588Z,36.17
2019-06-08T20:40:29.125Z,27.10
2019-06-08T20:42:59.488Z,38.17
2019-06-08T20:45:30.096Z,35.57
2019-06-08T20:48:00.455Z,28.47
2019-06-08T20:50:30.891Z,38.53
2019-06-08T20:53:01.304Z,30.80
2019-06-08T20:55:31.677Z,40.73
2019-06-08T20:58:02.051Z,31.57
2019-06-08T21:00:32.405Z,33.43
2019-06-08T21:03:03.272Z,30.70
2019-06-08T21:05:33.786Z,38.90
2019-06-08T21:08:04.522Z,30.07
2019-06-08T21:10:37.603Z,36.73
2019-06-08T21:13:07.348Z,35.10
2019-06-08T21:15:38.401Z,25.60
2019-06-08T21:18:09.053Z,33.43
2019-06-08T21:20:39.348Z,38.60
2019-06-08T21:23:09.733Z,34.33
2019-06-08T21:25:40.098Z,27.93
2019-06-08T21:28:10.410Z,29.93
2019-06-08T21:30:40.792Z,30.43
2019-06-08T21:33:11.162Z,31.83
2019-06-08T21:35:41.495Z,37.07
2019-06-08T21:38:23.280Z,27.80
2019-06-08T21:40:43.959Z,40.30
2019-06-08T21:43:14.314Z,40.63
2019-06-08T21:45:44.838Z,37.90
2019-06-08T21:48:15.200Z,37.57
2019-06-08T21:50:49.004Z,36.43
2019-06-08T21:53:18.149Z,37.27
2019-06-08T21:55:49.569Z,31.40
2019-06-08T21:58:20.952Z,42.57
2019-06-08T22:00:52.672Z,26.53
2019-06-08T22:03:23.052Z,27.57
2019-06-08T22:05:53.901Z,30.63
2019-06-08T22:08:24.413Z,34.50
2019-06-08T22:10:54.789Z,24.03
2019-06-08T22:13:25.247Z,31.47
2019-06-08T22:15:58.271Z,30.97
2019-06-08T22:18:27.845Z,31.17
2019-06-08T22:20:59.792Z,35.10
2019-06-08T22:23:30.504Z,35.13
2019-06-08T22:26:01.265Z,36.87
2019-06-08T22:28:31.584Z,25.17
2019-06-08T22:31:01.949Z,29.43
2019-06-08T22:33:32.494Z,29.63
2019-06-08T22:36:02.931Z,32.97
2019-06-08T22:38:33.382Z,32.80
2019-06-08T22:41:03.750Z,28.33
2019-06-08T22:43:34.237Z,23.90
2019-06-08T22:46:04.598Z,33.37
2019-06-08T22:48:35.039Z,30.83
2019-06-08T22:51:07.823Z,27.80
2019-06-08T22:53:38.430Z,29.03
2019-06-08T22:56:08.930Z,28.40
2019-06-08T22:58:39.354Z,26.80
2019-06-08T23:01:11.546Z,25.50
2019-06-08T23:03:41.864Z,34.83
2019-06-08T23:06:12.248Z,24.47
2019-06-08T23:08:42.647Z,26.57
2019-06-08T23:11:13.024Z,22.03
2019-06-08T23:13:43.380Z,31.87
2019-06-08T23:16:13.761Z,23.97
2019-06-08T23:18:44.163Z,22.87
2019-06-08T23:21:14.542Z,38.33
2019-06-08T23:23:44.896Z,26.77
2019-06-08T23:26:15.279Z,26.43
2019-06-08T23:28:47.141Z,24.23
2019-06-08T23:31:24.855Z,29.57
2019-06-08T23:33:49.763Z,29.83
2019-06-08T23:36:46.015Z,25.37
2019-06-08T23:38:52.084Z,32.13
2019-06-08T23:41:22.497Z,25.37
2019-06-08T23:43:52.862Z,24.27
2019-06-08T23:46:23.278Z,24.07
2019-06-08T23:48:53.640Z,29.83
2019-06-08T23:51:24.050Z,20.93
2019-06-08T23:53:59.619Z,28.13
2019-06-08T23:56:29.696Z,25.03
2019-06-08T23:59:01.314Z,26.30
